"WATCHING THE WEATHER TO PROTECT LIFE AND PROPERTY"


THERE ARE CURRENTLY NO WATCHES NOR WARNINGS


Aviation
Satellite (InfraRed)


KFLL 251853Z 11016KT 10SM FEW035 BKN060 OVC100 27/18 A3013 RMK AO2 SLP203 T02720178 $
KMCO 251853Z 12010KT 10SM FEW042 FEW080 27/16 A3015 RMK AO2 SLP209 T02720156
KMIA 251853Z 09014G20KT 10SM SCT030 BKN050 BKN060 27/19 A3014 RMK AO2 SLP205 T02670194
KTPA 251853Z 14007KT 10SM BKN085 28/17 A3015 RMK AO2 SLP210 T02780167
MDPP 251900Z 09015KT 9999 SCT020 27/23 Q1015
MDSD 251900Z 05006KT 9999 SCT020 26/23 Q1014 RERA
MKJS 251900Z 08023KT 9999 FEW022 29/23 Q1013
MTPP 251850Z VRB02KT 9999 FEW028 32/18 Q1012 A2990
MUHA 251855Z 08007KT 9000 SCT030 29/20 Q1018
MYNN 251900Z 10014KT 9999 FEW020 27/16 A3014
TAPA 251900Z 09008KT 050V140 9999 VCSH FEW018 28/22 Q1013 NOSIG
TFFF 251930Z AUTO 13009KT 9999 FEW028/// SCT072/// BKN092/// ///CB 28/22 Q1012 TEMPO 4000 SHRA
TFFR 251930Z AUTO 10009KT 050V130 CAVOK 28/21 Q1012 TEMPO 4000 SHRA SCT020TCU
TIST 251853Z 03005KT 10SM FEW029 28/21 A2993 RMK AO2 SLP135 T02780211
TISX 251853Z 11008KT 10SM SCT026 SCT031 SCT048 28/22 A2993
TJSJ 251856Z 01008KT 10SM SCT038 SCT110 28/23 A2994 RMK AO2 SLP136 SHRA DSNT S T02780228
TKPK 251900Z 09007KT 9999 SCT021 29/23 Q1013
TNCA 251900Z 07014KT 9999 BKN025 29/24 Q1011 NOSIG
TNCB 251855Z 13009KT 090V180 9999 FEW018 SCT022 BKN027 28/24 Q1010
TNCC 251932Z 12011KT 3000 SHRA FEW019TCU SCT034 27/23 Q1011 NOSIG
TNCE 251855Z AUTO 00000KT //// // ///////// 28/// Q//// RE//
TNCM 251900Z 09005KT 050V130 9999 SCT016 30/22 Q1014 NOSIG RMK SHRA W
TQPF 251900Z 11008KT 9999 FEW021 28/22 Q1013
TUPJ 251900Z VRB02KTKT 10SM FEW019 28/21 A2995 RMK Q1014